createdAt,value
2023-04-15T00:01:53.717Z,100565.31
2023-04-15T00:04:21.036Z,100565.78
2023-04-15T00:06:55.349Z,100586.72
2023-04-15T00:09:22.502Z,100579.91
2023-04-15T00:11:50.767Z,100578.75
2023-04-15T00:14:17.811Z,100579.50
2023-04-15T00:16:44.939Z,100585.81
2023-04-15T00:19:12.411Z,100574.69
2023-04-15T00:21:39.434Z,100597.53
2023-04-15T00:24:06.614Z,100590.06
2023-04-15T00:26:33.979Z,100576.84
2023-04-15T00:29:01.680Z,100603.38
2023-04-15T00:31:29.046Z,100585.28
2023-04-15T00:33:56.023Z,100576.72
2023-04-15T00:36:23.649Z,100577.63
2023-04-15T00:38:50.937Z,100565.66
2023-04-15T00:41:19.812Z,100619.78
2023-04-15T00:43:46.829Z,100598.91
2023-04-15T00:46:17.818Z,100610.13
2023-04-15T00:48:45.289Z,100626.41
2023-04-15T00:51:15.160Z,100616.22
2023-04-15T00:53:42.363Z,100585.88
2023-04-15T00:56:09.513Z,100607.66
2023-04-15T00:58:37.304Z,100603.38
2023-04-15T01:01:04.988Z,100640.34
2023-04-15T01:03:32.998Z,100642.75
2023-04-15T01:06:03.715Z,100603.22
2023-04-15T01:08:33.767Z,100638.03
2023-04-15T01:11:03.757Z,100656.19
2023-04-15T01:13:31.372Z,100612.16
2023-04-15T01:15:58.736Z,100643.31
2023-04-15T01:18:26.111Z,100642.22
2023-04-15T01:20:53.811Z,100647.06
2023-04-15T01:23:24.442Z,100611.44
2023-04-15T01:25:52.810Z,100631.72
2023-04-15T01:28:20.590Z,100656.97
2023-04-15T01:30:48.167Z,100667.88
2023-04-15T01:33:16.178Z,100644.66
2023-04-15T01:36:01.856Z,100650.56
2023-04-15T01:38:29.977Z,100656.59
2023-04-15T01:40:57.187Z,100629.81
2023-04-15T01:43:26.570Z,100672.75
2023-04-15T01:45:53.683Z,100685.19
2023-04-15T01:48:20.661Z,100685.88
2023-04-15T01:50:47.585Z,100656.31
2023-04-15T01:53:16.062Z,100658.53
2023-04-15T01:55:43.148Z,100653.84
2023-04-15T01:58:10.164Z,100697.47
2023-04-15T02:00:37.329Z,100664.97
2023-04-15T02:03:04.615Z,100701.19
2023-04-15T02:05:32.052Z,100688.50
2023-04-15T02:07:59.255Z,100678.66
2023-04-15T02:10:26.507Z,100703.78
2023-04-15T02:12:54.380Z,100692.41
2023-04-15T02:15:22.422Z,100701.91
2023-04-15T02:17:52.922Z,100721.34
2023-04-15T02:20:21.696Z,100713.13
2023-04-15T02:22:49.425Z,100722.06
2023-04-15T02:25:20.464Z,100722.50
2023-04-15T02:27:47.423Z,100729.25
2023-04-15T02:30:19.140Z,100718.22
2023-04-15T02:32:47.213Z,100705.19
2023-04-15T02:35:14.356Z,100737.81
2023-04-15T02:37:44.058Z,100737.50
2023-04-15T02:40:12.579Z,100733.47
2023-04-15T02:42:40.522Z,100757.44
2023-04-15T02:45:12.314Z,100754.03
2023-04-15T02:47:44.076Z,100761.59
2023-04-15T02:50:13.332Z,100755.56
2023-04-15T02:52:42.625Z,100760.53
2023-04-15T02:55:10.887Z,100754.19
2023-04-15T02:57:39.331Z,100737.97
2023-04-15T03:00:10.541Z,100764.81
2023-04-15T03:02:42.176Z,100772.88
2023-04-15T03:05:14.035Z,100776.44
2023-04-15T03:07:47.302Z,100747.78
2023-04-15T03:10:14.562Z,100772.88
2023-04-15T03:12:41.579Z,100762.91
2023-04-15T03:15:12.375Z,100792.16
2023-04-15T03:17:44.085Z,100790.53
2023-04-15T03:20:11.478Z,100753.28
2023-04-15T03:22:38.642Z,100748.00
2023-04-15T03:25:06.408Z,100777.81
2023-04-15T03:27:33.742Z,100790.94
2023-04-15T03:30:03.528Z,100762.69
2023-04-15T03:32:33.653Z,100755.66
2023-04-15T03:35:01.021Z,100805.25
2023-04-15T03:37:28.038Z,100809.03
2023-04-15T03:39:55.056Z,100811.00
2023-04-15T03:42:22.207Z,100792.69
2023-04-15T03:44:49.141Z,100822.03
2023-04-15T03:47:16.580Z,100802.53
2023-04-15T03:49:43.586Z,100788.59
2023-04-15T03:52:10.879Z,100827.88
2023-04-15T03:54:37.838Z,100787.09
2023-04-15T03:57:04.965Z,100791.06
2023-04-15T03:59:31.985Z,100828.81
2023-04-15T04:01:59.043Z,100789.69
2023-04-15T04:04:26.163Z,100789.72
2023-04-15T04:06:53.145Z,100822.81
2023-04-15T04:09:20.122Z,100818.97
2023-04-15T04:11:47.065Z,100812.91
2023-04-15T04:14:14.058Z,100835.88
2023-04-15T04:16:41.253Z,100798.75
2023-04-15T04:19:08.635Z,100827.03
2023-04-15T04:21:36.688Z,100810.47
2023-04-15T04:24:03.817Z,100833.88
2023-04-15T04:26:30.895Z,100815.03
2023-04-15T04:28:57.792Z,100818.53
2023-04-15T04:31:24.948Z,100830.47
2023-04-15T04:33:52.020Z,100808.03
2023-04-15T04:36:19.002Z,100829.78
2023-04-15T04:38:46.136Z,100831.72
2023-04-15T04:41:13.115Z,100836.41
2023-04-15T04:43:40.447Z,100817.03
2023-04-15T04:46:07.542Z,100808.88
2023-04-15T04:48:34.730Z,100829.91
2023-04-15T04:51:02.162Z,100836.50
2023-04-15T04:53:29.368Z,100843.22
2023-04-15T04:55:56.393Z,100848.44
2023-04-15T04:58:23.401Z,100845.75
2023-04-15T05:00:50.569Z,100794.06
2023-04-15T05:03:17.979Z,100806.47
2023-04-15T05:05:45.086Z,100812.31
2023-04-15T05:08:12.376Z,100823.53
2023-04-15T05:10:39.472Z,100829.75
2023-04-15T05:13:06.729Z,100826.63
2023-04-15T05:15:35.128Z,100805.97
2023-04-15T05:18:02.360Z,100852.97
2023-04-15T05:20:29.371Z,100831.75
2023-04-15T05:22:56.406Z,100852.53
2023-04-15T05:25:23.514Z,100851.19
2023-04-15T05:27:50.692Z,100812.28
2023-04-15T05:30:17.737Z,100856.53
2023-04-15T05:32:44.731Z,100822.63
2023-04-15T05:35:12.573Z,100830.75
2023-04-15T05:37:39.652Z,100865.88
2023-04-15T05:40:07.203Z,100849.44
2023-04-15T05:42:35.920Z,100856.03
2023-04-15T05:45:05.616Z,100871.84
2023-04-15T05:47:32.875Z,100844.47
2023-04-15T05:50:00.149Z,100857.31
2023-04-15T05:52:27.599Z,100824.81
2023-04-15T05:54:54.609Z,100854.38
2023-04-15T05:57:22.009Z,100877.50
2023-04-15T05:59:49.665Z,100875.69
2023-04-15T06:02:16.901Z,100868.22
2023-04-15T06:04:44.192Z,100861.34
2023-04-15T06:07:11.185Z,100851.66
2023-04-15T06:09:38.303Z,100850.81
2023-04-15T06:12:06.943Z,100822.78
2023-04-15T06:14:34.131Z,100821.84
2023-04-15T06:17:01.561Z,100863.06
2023-04-15T06:19:28.557Z,100870.13
2023-04-15T06:21:55.822Z,100829.66
2023-04-15T06:24:22.971Z,100880.56
2023-04-15T06:26:50.164Z,100866.38
2023-04-15T06:29:17.273Z,100866.25
2023-04-15T06:31:48.277Z,100876.13
2023-04-15T06:34:15.362Z,100871.97
2023-04-15T06:36:42.333Z,100863.28
2023-04-15T06:39:09.309Z,100836.28
2023-04-15T06:41:36.592Z,100860.94
2023-04-15T06:44:03.882Z,100866.28
2023-04-15T06:46:30.889Z,100862.09
2023-04-15T06:48:57.834Z,100875.94
2023-04-15T06:51:26.656Z,100856.75
2023-04-15T06:53:55.986Z,100860.50
2023-04-15T06:56:26.238Z,100826.03
2023-04-15T06:58:53.213Z,100876.97
2023-04-15T07:01:20.484Z,100859.72
2023-04-15T07:03:47.598Z,100864.84
2023-04-15T07:06:14.685Z,100877.50
2023-04-15T07:08:42.435Z,100840.13
2023-04-15T07:11:09.746Z,100861.63
2023-04-15T07:13:36.932Z,100865.31
2023-04-15T07:16:07.148Z,100854.25
2023-04-15T07:18:43.611Z,100866.63
2023-04-15T07:21:10.913Z,100857.56
2023-04-15T07:23:37.901Z,100862.94
2023-04-15T07:26:05.034Z,100843.53
2023-04-15T07:28:32.162Z,100879.25
2023-04-15T07:30:59.189Z,100861.81
2023-04-15T07:33:26.371Z,100855.78
2023-04-15T07:35:53.383Z,100858.69
2023-04-15T07:38:20.364Z,100876.03
2023-04-15T07:40:47.544Z,100872.75
2023-04-15T07:43:14.604Z,100840.53
2023-04-15T07:45:41.727Z,100867.88
2023-04-15T07:48:08.877Z,100862.13
2023-04-15T07:50:35.904Z,100858.75
2023-04-15T07:53:02.960Z,100849.28
2023-04-15T07:55:30.814Z,100837.16
2023-04-15T07:57:58.044Z,100813.41
2023-04-15T08:00:25.176Z,100840.78
2023-04-15T08:02:53.499Z,100855.53
2023-04-15T08:05:20.887Z,100855.75
2023-04-15T08:07:48.432Z,100831.81
2023-04-15T08:10:15.778Z,100845.38
2023-04-15T08:12:43.108Z,100842.31
2023-04-15T08:15:10.630Z,100862.81
2023-04-15T08:17:37.823Z,100859.97
2023-04-15T08:20:28.056Z,100826.03
2023-04-15T08:22:56.580Z,100747.50
2023-04-15T08:25:23.634Z,100855.06
2023-04-15T08:27:58.423Z,100853.59
2023-04-15T08:30:25.530Z,100855.94
2023-04-15T08:32:52.679Z,100855.56
2023-04-15T08:35:19.792Z,100854.00
2023-04-15T08:37:46.979Z,100838.34
2023-04-15T08:40:14.343Z,100823.22
2023-04-15T08:42:49.258Z,100852.56
2023-04-15T08:45:18.383Z,100850.72
2023-04-15T08:47:47.630Z,100839.31
2023-04-15T08:50:15.445Z,100853.50
2023-04-15T08:52:42.900Z,100859.03
2023-04-15T08:55:12.198Z,100828.31
2023-04-15T08:57:40.070Z,100854.47
2023-04-15T09:00:07.860Z,100853.13
2023-04-15T09:02:35.473Z,100850.09
2023-04-15T09:05:05.141Z,100832.25
2023-04-15T09:07:34.878Z,100850.19
2023-04-15T09:10:02.246Z,100849.72
2023-04-15T09:12:29.224Z,100808.22
2023-04-15T09:14:57.385Z,100813.06
2023-04-15T09:17:26.783Z,100822.91
2023-04-15T09:20:09.101Z,100808.50
2023-04-15T09:22:38.587Z,100830.00
2023-04-15T09:25:36.773Z,100797.88
2023-04-15T09:28:04.595Z,100837.22
2023-04-15T09:30:31.844Z,100849.53
2023-04-15T09:33:02.391Z,100842.19
2023-04-15T09:35:29.506Z,100844.59
2023-04-15T09:38:08.105Z,100836.25
2023-04-15T09:40:40.450Z,100847.84
2023-04-15T09:43:09.811Z,100823.03
2023-04-15T09:45:37.268Z,100847.63
2023-04-15T09:48:19.184Z,100842.44
2023-04-15T09:50:46.336Z,100828.31
2023-04-15T09:53:18.563Z,100819.25
2023-04-15T09:55:47.520Z,100794.28
2023-04-15T09:58:25.196Z,100841.13
2023-04-15T10:00:54.019Z,100772.59
2023-04-15T10:03:23.796Z,100843.09
2023-04-15T10:05:52.950Z,100807.78
2023-04-15T10:08:24.031Z,100792.91
2023-04-15T10:10:54.944Z,100812.38
2023-04-15T10:13:24.535Z,100829.41
2023-04-15T10:16:00.045Z,100825.03
2023-04-15T10:18:35.272Z,100804.50
2023-04-15T10:21:02.595Z,100817.63
2023-04-15T10:23:29.881Z,100815.72
2023-04-15T10:25:59.080Z,100804.38
2023-04-15T10:28:26.974Z,100818.47
2023-04-15T10:31:03.806Z,100785.72
2023-04-15T10:33:48.825Z,100662.03
2023-04-15T10:36:28.158Z,100774.50
2023-04-15T10:39:03.936Z,100733.81
2023-04-15T10:41:36.046Z,100720.34
2023-04-15T10:44:09.242Z,100703.16
2023-04-15T10:46:43.590Z,100725.31
2023-04-15T10:49:15.939Z,100678.03
2023-04-15T10:51:48.118Z,100739.31
2023-04-15T10:54:24.805Z,100811.16
2023-04-15T10:57:07.073Z,100804.16
2023-04-15T10:59:38.575Z,100815.69
2023-04-15T11:02:07.629Z,100790.19
2023-04-15T11:05:01.020Z,100826.44
2023-04-15T11:07:44.997Z,100827.34
2023-04-15T11:10:17.895Z,100816.75
2023-04-15T11:12:52.734Z,100783.06
2023-04-15T11:15:39.048Z,100817.31
2023-04-15T11:18:11.578Z,100805.72
2023-04-15T11:20:39.765Z,100816.50
2023-04-15T11:23:14.141Z,100806.78
2023-04-15T11:25:44.328Z,100800.38
2023-04-15T11:28:12.975Z,100796.25
2023-04-15T11:30:42.441Z,100792.53
2023-04-15T11:33:14.882Z,100796.25
2023-04-15T11:35:42.740Z,100792.25
2023-04-15T11:38:12.250Z,100751.47
2023-04-15T11:40:39.630Z,100777.00
2023-04-15T11:43:21.189Z,100798.31
2023-04-15T11:45:59.205Z,100780.19
2023-04-15T11:48:28.298Z,100780.56
2023-04-15T11:50:59.757Z,100752.34
2023-04-15T11:53:49.368Z,100776.00
2023-04-15T11:56:25.660Z,100782.19
2023-04-15T11:58:59.506Z,100767.59
2023-04-15T12:01:42.538Z,100760.84
2023-04-15T12:04:13.806Z,100764.59
2023-04-15T12:06:41.897Z,100749.25
2023-04-15T12:09:20.473Z,100759.19
2023-04-15T12:11:50.049Z,100756.03
2023-04-15T12:14:31.368Z,100744.69
2023-04-15T12:17:02.155Z,100765.09
2023-04-15T12:19:32.835Z,100745.56
2023-04-15T12:22:02.474Z,100737.44
2023-04-15T12:24:36.049Z,100742.50
2023-04-15T12:27:08.446Z,100760.13
2023-04-15T12:29:38.505Z,100737.56
2023-04-15T12:32:08.068Z,100754.34
2023-04-15T12:34:36.476Z,100767.78
2023-04-15T12:37:05.921Z,100758.56
2023-04-15T12:39:37.014Z,100731.16
2023-04-15T12:42:05.562Z,100763.22
2023-04-15T12:44:35.089Z,100737.19
2023-04-15T12:47:02.663Z,100693.81
2023-04-15T12:49:32.972Z,100741.56
2023-04-15T12:52:01.998Z,100731.25
2023-04-15T12:54:30.717Z,100745.66
2023-04-15T12:56:58.504Z,100761.44
2023-04-15T12:59:26.031Z,100764.09
2023-04-15T13:01:54.155Z,100752.59
2023-04-15T13:04:22.377Z,100770.47
2023-04-15T13:06:50.234Z,100769.63
2023-04-15T13:09:17.748Z,100747.59
2023-04-15T13:11:45.017Z,100770.66
2023-04-15T13:14:15.105Z,100727.31
2023-04-15T13:17:16.765Z,100637.38
2023-04-15T13:20:06.588Z,100681.53
2023-04-15T13:24:07.273Z,100629.41
2023-04-15T13:26:38.391Z,100661.22
2023-04-15T13:29:22.151Z,100765.47
2023-04-15T13:31:52.456Z,100669.94
2023-04-15T13:34:24.458Z,100765.44
2023-04-15T13:36:57.014Z,100677.91
2023-04-15T13:40:27.630Z,100772.41
2023-04-15T13:43:24.516Z,100690.16
2023-04-15T13:46:04.412Z,100628.22
2023-04-15T13:48:39.826Z,100638.88
2023-04-15T13:55:19.174Z,100675.09
2023-04-15T13:58:30.641Z,100677.00
2023-04-15T14:00:59.226Z,100657.56
2023-04-15T14:03:26.683Z,100756.63
2023-04-15T14:05:56.231Z,100738.06
2023-04-15T14:08:24.895Z,100760.16
2023-04-15T14:10:52.037Z,100747.78
2023-04-15T14:13:19.798Z,100731.88
2023-04-15T14:15:47.549Z,100742.50
2023-04-15T14:18:15.317Z,100759.28
2023-04-15T14:20:42.342Z,100738.88
2023-04-15T14:23:09.349Z,100754.81
2023-04-15T14:25:38.975Z,100756.53
2023-04-15T14:28:06.257Z,100769.69
2023-04-15T14:30:33.605Z,100747.50
2023-04-15T14:33:01.037Z,100746.50
2023-04-15T14:35:28.823Z,100721.56
2023-04-15T14:37:56.686Z,100753.41
2023-04-15T14:40:23.793Z,100740.06
2023-04-15T14:42:51.394Z,100741.63
2023-04-15T14:45:19.899Z,100755.69
2023-04-15T14:47:47.790Z,100736.00
2023-04-15T14:50:15.201Z,100760.59
2023-04-15T14:52:42.606Z,100757.56
2023-04-15T14:55:11.338Z,100748.44
2023-04-15T14:57:39.490Z,100731.13
2023-04-15T15:00:08.399Z,100746.69
2023-04-15T15:02:39.748Z,100730.34
2023-04-15T15:05:11.033Z,100740.84
2023-04-15T15:07:39.648Z,100756.44
2023-04-15T15:10:10.112Z,100752.66
2023-04-15T15:12:37.294Z,100740.03
2023-04-15T15:15:12.485Z,100755.91
2023-04-15T15:17:43.712Z,100756.63
2023-04-15T15:20:13.866Z,100746.72
2023-04-15T15:22:44.964Z,100759.97
2023-04-15T15:25:12.123Z,100749.19
2023-04-15T15:27:39.344Z,100727.13
2023-04-15T15:30:07.279Z,100756.22
2023-04-15T15:32:34.741Z,100764.22
2023-04-15T15:35:02.245Z,100750.84
2023-04-15T15:37:31.957Z,100742.84
2023-04-15T15:39:59.561Z,100727.78
2023-04-15T15:42:30.083Z,100758.81
2023-04-15T15:44:59.751Z,100758.75
2023-04-15T15:47:27.193Z,100748.00
2023-04-15T15:49:58.153Z,100757.75
2023-04-15T15:52:25.304Z,100750.63
2023-04-15T15:55:07.982Z,100760.16
2023-04-15T15:57:35.109Z,100754.84
2023-04-15T16:00:11.949Z,100749.31
2023-04-15T16:03:05.043Z,100758.97
2023-04-15T16:05:28.102Z,100749.94
2023-04-15T16:07:55.729Z,100689.66
2023-04-15T16:10:22.844Z,100723.97
2023-04-15T16:12:50.719Z,100737.97
2023-04-15T16:15:26.554Z,100587.06
2023-04-15T16:18:21.975Z,100769.56
2023-04-15T16:20:49.428Z,100757.94
2023-04-15T16:23:24.826Z,100749.75
2023-04-15T16:25:55.041Z,100765.44
2023-04-15T16:28:26.781Z,100758.25
2023-04-15T16:30:55.595Z,100743.91
2023-04-15T16:33:22.760Z,100732.25
2023-04-15T16:35:49.965Z,100721.44
2023-04-15T16:38:17.096Z,100765.53
2023-04-15T16:40:44.449Z,100760.09
2023-04-15T16:43:11.952Z,100727.13
2023-04-15T16:45:39.400Z,100765.97
2023-04-15T16:48:14.071Z,100758.63
2023-04-15T16:50:47.367Z,100722.03
2023-04-15T16:53:18.116Z,100778.63
2023-04-15T16:55:45.907Z,100761.69
2023-04-15T16:58:12.977Z,100757.28
2023-04-15T17:00:40.197Z,100751.53
2023-04-15T17:03:07.609Z,100773.69
2023-04-15T17:05:42.569Z,100777.06
2023-04-15T17:08:09.985Z,100757.41
2023-04-15T17:10:37.168Z,100782.97
2023-04-15T17:13:04.202Z,100782.00
2023-04-15T17:15:31.592Z,100757.03
2023-04-15T17:18:18.411Z,100775.66
2023-04-15T17:20:57.842Z,100768.38
2023-04-15T17:23:27.292Z,100776.34
2023-04-15T17:25:54.903Z,100778.00
2023-04-15T17:28:23.146Z,100782.97
2023-04-15T17:30:51.770Z,100782.88
2023-04-15T17:33:56.163Z,100793.38
2023-04-15T17:36:46.550Z,100787.06
2023-04-15T17:39:33.746Z,100787.63
2023-04-15T17:42:22.883Z,100766.31
2023-04-15T17:45:10.484Z,100789.22
2023-04-15T17:48:03.785Z,100745.56
2023-04-15T17:50:53.900Z,100807.59
2023-04-15T17:53:41.612Z,100805.69
2023-04-15T17:56:29.408Z,100802.69
2023-04-15T17:59:17.052Z,100811.50
2023-04-15T18:02:04.287Z,100748.28
2023-04-15T18:04:51.545Z,100802.22
2023-04-15T18:07:38.938Z,100748.59
2023-04-15T18:10:25.906Z,100807.78
2023-04-15T18:13:12.994Z,100792.28
2023-04-15T18:15:59.959Z,100791.25
2023-04-15T18:18:46.956Z,100800.94
2023-04-15T18:21:14.100Z,100813.09
2023-04-15T18:23:41.464Z,100801.47
2023-04-15T18:26:08.663Z,100803.22
2023-04-15T18:28:35.898Z,100807.56
2023-04-15T18:31:04.007Z,100755.81
2023-04-15T18:33:36.646Z,100793.19
2023-04-15T18:36:03.966Z,100803.78
2023-04-15T18:38:33.540Z,100812.47
2023-04-15T18:41:00.898Z,100808.69
2023-04-15T18:43:28.069Z,100815.75
2023-04-15T18:45:55.351Z,100827.84
2023-04-15T18:48:22.686Z,100817.16
2023-04-15T18:50:56.286Z,100794.66
2023-04-15T18:53:23.571Z,100827.22
2023-04-15T18:55:51.902Z,100806.63
2023-04-15T18:58:19.026Z,100828.75
2023-04-15T19:00:46.254Z,100823.19
2023-04-15T19:03:13.445Z,100784.13
2023-04-15T19:05:40.960Z,100825.97
2023-04-15T19:08:08.085Z,100813.16
2023-04-15T19:10:35.588Z,100797.13
2023-04-15T19:13:04.300Z,100818.31
2023-04-15T19:15:31.924Z,100801.59
2023-04-15T19:17:59.138Z,100834.28
2023-04-15T19:20:26.598Z,100834.25
2023-04-15T19:22:55.204Z,100778.31
2023-04-15T19:25:22.409Z,100842.97
2023-04-15T19:27:49.597Z,100836.75
2023-04-15T19:30:19.255Z,100822.28
2023-04-15T19:32:46.427Z,100820.31
2023-04-15T19:35:14.472Z,100839.91
2023-04-15T19:37:41.761Z,100838.91
2023-04-15T19:40:09.704Z,100830.59
2023-04-15T19:42:36.794Z,100821.56
2023-04-15T19:45:04.499Z,100853.25
2023-04-15T19:47:36.996Z,100843.28
2023-04-15T19:50:06.266Z,100852.91
2023-04-15T19:52:34.376Z,100854.47
2023-04-15T19:55:01.507Z,100842.66
2023-04-15T19:57:31.037Z,100842.66
2023-04-15T19:59:58.342Z,100803.38
2023-04-15T20:02:25.635Z,100852.06
2023-04-15T20:04:52.727Z,100864.97
2023-04-15T20:07:19.838Z,100854.78
2023-04-15T20:09:50.219Z,100844.09
2023-04-15T20:12:51.756Z,100871.59
2023-04-15T20:15:04.733Z,100864.97
2023-04-15T20:17:36.250Z,100835.53
2023-04-15T20:20:07.745Z,100877.31
2023-04-15T20:22:35.529Z,100875.44
2023-04-15T20:25:03.410Z,100874.38
2023-04-15T20:27:31.749Z,100880.38
2023-04-15T20:29:58.915Z,100876.69
2023-04-15T20:32:28.468Z,100841.16
2023-04-15T20:34:55.849Z,100880.06
2023-04-15T20:37:23.039Z,100844.31
2023-04-15T20:39:50.224Z,100854.75
2023-04-15T20:42:18.786Z,100833.09
2023-04-15T20:44:45.977Z,100886.34
2023-04-15T20:47:13.265Z,100878.13
2023-04-15T20:49:40.515Z,100883.00
2023-04-15T20:52:08.566Z,100898.03
2023-04-15T20:54:36.069Z,100899.72
2023-04-15T20:57:03.184Z,100874.59
2023-04-15T20:59:30.519Z,100901.22
2023-04-15T21:01:58.373Z,100903.84
2023-04-15T21:04:25.641Z,100888.50
2023-04-15T21:06:52.691Z,100900.06
2023-04-15T21:09:20.220Z,100886.66
2023-04-15T21:14:19.274Z,100904.78
2023-04-15T21:16:46.796Z,100871.63
2023-04-15T21:19:13.980Z,100895.72
2023-04-15T21:21:41.197Z,100905.41
2023-04-15T21:24:08.397Z,100908.78
2023-04-15T21:26:36.356Z,100866.75
2023-04-15T21:29:03.801Z,100906.50
2023-04-15T21:31:31.194Z,100886.06
2023-04-15T21:33:58.391Z,100876.09
2023-04-15T21:36:25.990Z,100916.69
2023-04-15T21:38:53.276Z,100897.78
2023-04-15T21:41:20.655Z,100919.81
2023-04-15T21:43:47.896Z,100923.47
2023-04-15T21:46:22.110Z,100917.16
2023-04-15T21:48:55.792Z,100879.50
2023-04-15T21:51:23.097Z,100919.69
2023-04-15T21:53:50.270Z,100911.97
2023-04-15T21:56:17.388Z,100912.88
2023-04-15T21:58:44.485Z,100921.53
2023-04-15T22:01:11.909Z,100932.91
2023-04-15T22:03:39.363Z,100932.81
2023-04-15T22:06:06.886Z,100919.28
2023-04-15T22:08:41.750Z,100919.28
2023-04-15T22:11:23.199Z,100926.00
2023-04-15T22:13:50.691Z,100922.53
2023-04-15T22:16:18.119Z,100900.19
2023-04-15T22:18:45.312Z,100922.47
2023-04-15T22:21:13.620Z,100906.06
2023-04-15T22:23:41.097Z,100897.16
2023-04-15T22:26:08.213Z,100930.94
2023-04-15T22:28:35.212Z,100926.56
2023-04-15T22:31:02.498Z,100941.38
2023-04-15T22:33:30.028Z,100897.75
2023-04-15T22:35:57.275Z,100943.81
2023-04-15T22:38:24.991Z,100916.06
2023-04-15T22:40:54.142Z,100917.56
2023-04-15T22:43:21.369Z,100935.88
2023-04-15T22:45:53.076Z,100947.50
2023-04-15T22:48:20.410Z,100938.25
2023-04-15T22:50:47.727Z,100941.69
2023-04-15T22:53:17.425Z,100929.63
2023-04-15T22:55:48.318Z,100952.41
2023-04-15T22:58:16.429Z,100900.81
2023-04-15T23:00:43.482Z,100946.81
2023-04-15T23:03:11.064Z,100916.53
2023-04-15T23:05:40.203Z,100907.59
2023-04-15T23:08:08.205Z,100898.34
2023-04-15T23:10:35.670Z,100944.78
2023-04-15T23:13:02.893Z,100957.09
2023-04-15T23:15:29.989Z,100922.22
2023-04-15T23:17:57.110Z,100946.16
2023-04-15T23:20:24.268Z,100952.97
2023-04-15T23:22:51.540Z,100969.13
2023-04-15T23:25:22.397Z,100969.97
2023-04-15T23:27:51.903Z,100970.84
2023-04-15T23:30:18.997Z,100963.66
2023-04-15T23:32:46.649Z,100967.28
2023-04-15T23:35:13.848Z,100979.47
2023-04-15T23:37:41.034Z,100979.34
2023-04-15T23:40:08.778Z,100966.50
2023-04-15T23:42:35.838Z,100957.28
2023-04-15T23:45:02.877Z,100966.38
2023-04-15T23:47:33.396Z,100944.91
2023-04-15T23:50:00.653Z,100981.47
2023-04-15T23:52:27.926Z,100979.22
2023-04-15T23:54:54.971Z,100970.97
2023-04-15T23:57:22.132Z,100997.53
2023-04-15T23:59:49.140Z,100943.34
